sensor_id;sensor_type;location;lat;lon;timestamp;pressure;altitude;pressure_sealevel;temperature;humidity
5284;BME280;15377;48.540;9.268;2022-09-13T00:00:52;97063.97;;;12.32;100.00
5284;BME280;15377;48.540;9.268;2022-09-13T00:03:18;97061.16;;;12.27;100.00
5284;BME280;15377;48.540;9.268;2022-09-13T00:05:44;97055.63;;;12.21;100.00
5284;BME280;15377;48.540;9.268;2022-09-13T00:08:09;97029.16;;;12.04;100.00
5284;BME280;15377;48.540;9.268;2022-09-13T00:10:36;97054.31;;;12.17;100.00
5284;BME280;15377;48.540;9.268;2022-09-13T00:13:03;97048.25;;;12.13;100.00
5284;BME280;15377;48.540;9.268;2022-09-13T00:15:29;97031.09;;;11.98;100.00
5284;BME280;15377;48.540;9.268;2022-09-13T00:17:55;97033.41;;;12.05;100.00
5284;BME280;15377;48.540;9.268;2022-09-13T00:20:21;97028.06;;;11.96;100.00
5284;BME280;15377;48.540;9.268;2022-09-13T00:22:46;97032.81;;;11.95;100.00
5284;BME280;15377;48.540;9.268;2022-09-13T00:25:11;97036.72;;;12.09;100.00
5284;BME280;15377;48.540;9.268;2022-09-13T00:27:37;97031.94;;;12.09;100.00
5284;BME280;15377;48.540;9.268;2022-09-13T00:30:06;97027.72;;;12.14;100.00
5284;BME280;15377;48.540;9.268;2022-09-13T00:32:33;97041.91;;;12.38;100.00
5284;BME280;15377;48.540;9.268;2022-09-13T00:34:59;97021.44;;;12.50;100.00
5284;BME280;15377;48.540;9.268;2022-09-13T00:37:24;97007.88;;;12.52;100.00
5284;BME280;15377;48.540;9.268;2022-09-13T00:39:50;97022.53;;;12.69;100.00
5284;BME280;15377;48.540;9.268;2022-09-13T00:42:15;97026.03;;;12.64;100.00
5284;BME280;15377;48.540;9.268;2022-09-13T00:47:48;97032.66;;;12.35;100.00
5284;BME280;15377;48.540;9.268;2022-09-13T00:50:29;97034.28;;;12.22;100.00
5284;BME280;15377;48.540;9.268;2022-09-13T00:53:09;97028.38;;;12.03;100.00
5284;BME280;15377;48.540;9.268;2022-09-13T00:55:37;97045.16;;;12.00;100.00
5284;BME280;15377;48.540;9.268;2022-09-13T00:58:09;97023.13;;;12.00;100.00
5284;BME280;15377;48.540;9.268;2022-09-13T01:00:36;97045.00;;;12.09;100.00
5284;BME280;15377;48.540;9.268;2022-09-13T01:03:10;97038.44;;;12.06;100.00
5284;BME280;15377;48.540;9.268;2022-09-13T01:05:47;97054.66;;;11.99;100.00
5284;BME280;15377;48.540;9.268;2022-09-13T01:08:15;97043.56;;;11.88;100.00
5284;BME280;15377;48.540;9.268;2022-09-13T01:10:47;97039.03;;;11.85;100.00
5284;BME280;15377;48.540;9.268;2022-09-13T01:13:20;97039.69;;;11.74;100.00
5284;BME280;15377;48.540;9.268;2022-09-13T01:15:47;97029.31;;;11.64;100.00
5284;BME280;15377;48.540;9.268;2022-09-13T01:18:13;97033.06;;;11.61;100.00
5284;BME280;15377;48.540;9.268;2022-09-13T01:24:11;97011.13;;;11.52;100.00
5284;BME280;15377;48.540;9.268;2022-09-13T01:49:13;97000.09;;;11.52;100.00
5284;BME280;15377;48.540;9.268;2022-09-13T01:52:01;97004.09;;;11.51;100.00
5284;BME280;15377;48.540;9.268;2022-09-13T01:57:41;97012.63;;;11.78;100.00
5284;BME280;15377;48.540;9.268;2022-09-13T02:00:14;97020.63;;;12.02;100.00
5284;BME280;15377;48.540;9.268;2022-09-13T02:08:09;97029.22;;;12.15;100.00
5284;BME280;15377;48.540;9.268;2022-09-13T02:10:41;97013.22;;;11.88;100.00
5284;BME280;15377;48.540;9.268;2022-09-13T02:13:13;97009.84;;;11.73;100.00
5284;BME280;15377;48.540;9.268;2022-09-13T02:15:46;97023.09;;;11.69;100.00
5284;BME280;15377;48.540;9.268;2022-09-13T02:18:25;97006.06;;;11.45;100.00
5284;BME280;15377;48.540;9.268;2022-09-13T02:20:58;97023.50;;;11.36;100.00
5284;BME280;15377;48.540;9.268;2022-09-13T02:23:30;97010.06;;;11.18;100.00
5284;BME280;15377;48.540;9.268;2022-09-13T02:25:58;97022.53;;;11.14;100.00
5284;BME280;15377;48.540;9.268;2022-09-13T02:28:32;97011.78;;;10.96;100.00
5284;BME280;15377;48.540;9.268;2022-09-13T02:31:01;97013.03;;;10.95;100.00
5284;BME280;15377;48.540;9.268;2022-09-13T02:33:32;97025.84;;;10.98;100.00
5284;BME280;15377;48.540;9.268;2022-09-13T02:36:06;97042.91;;;11.02;100.00
5284;BME280;15377;48.540;9.268;2022-09-13T02:38:40;97045.78;;;11.13;100.00
5284;BME280;15377;48.540;9.268;2022-09-13T02:41:23;97046.44;;;11.28;100.00
5284;BME280;15377;48.540;9.268;2022-09-13T02:43:59;97046.03;;;11.35;100.00
5284;BME280;15377;48.540;9.268;2022-09-13T02:49:25;97032.88;;;11.24;100.00
5284;BME280;15377;48.540;9.268;2022-09-13T02:54:53;97036.41;;;11.05;100.00
5284;BME280;15377;48.540;9.268;2022-09-13T02:57:30;97038.31;;;10.93;100.00
5284;BME280;15377;48.540;9.268;2022-09-13T02:59:56;97036.31;;;10.94;100.00
5284;BME280;15377;48.540;9.268;2022-09-13T03:02:26;97047.44;;;10.85;100.00
5284;BME280;15377;48.540;9.268;2022-09-13T03:04:53;97029.47;;;10.70;100.00
5284;BME280;15377;48.540;9.268;2022-09-13T03:07:19;97040.63;;;10.81;100.00
5284;BME280;15377;48.540;9.268;2022-09-13T03:09:51;97042.56;;;10.94;100.00
5284;BME280;15377;48.540;9.268;2022-09-13T03:15:33;97042.22;;;11.07;100.00
5284;BME280;15377;48.540;9.268;2022-09-13T03:32:13;96999.75;;;10.54;100.00
5284;BME280;15377;48.540;9.268;2022-09-13T03:34:53;96981.41;;;10.45;100.00
5284;BME280;15377;48.540;9.268;2022-09-13T03:37:30;96995.59;;;10.58;100.00
5284;BME280;15377;48.540;9.268;2022-09-13T03:40:19;96975.81;;;10.60;100.00
5284;BME280;15377;48.540;9.268;2022-09-13T03:42:57;96994.06;;;10.77;100.00
5284;BME280;15377;48.540;9.268;2022-09-13T03:45:29;96995.09;;;10.80;100.00
5284;BME280;15377;48.540;9.268;2022-09-13T03:47:57;96986.34;;;10.81;100.00
5284;BME280;15377;48.540;9.268;2022-09-13T03:50:24;96998.59;;;11.00;100.00
5284;BME280;15377;48.540;9.268;2022-09-13T03:52:55;97003.66;;;11.07;100.00
5284;BME280;15377;48.540;9.268;2022-09-13T03:55:23;96966.81;;;10.79;100.00
5284;BME280;15377;48.540;9.268;2022-09-13T03:57:50;96983.06;;;10.77;100.00
5284;BME280;15377;48.540;9.268;2022-09-13T04:00:15;96982.56;;;10.79;100.00
5284;BME280;15377;48.540;9.268;2022-09-13T04:02:42;96958.91;;;10.67;100.00
5284;BME280;15377;48.540;9.268;2022-09-13T04:05:07;96971.97;;;10.72;100.00
5284;BME280;15377;48.540;9.268;2022-09-13T04:07:33;96969.44;;;10.68;100.00
5284;BME280;15377;48.540;9.268;2022-09-13T04:09:58;96974.53;;;10.75;100.00
5284;BME280;15377;48.540;9.268;2022-09-13T04:12:24;96954.59;;;10.60;100.00
5284;BME280;15377;48.540;9.268;2022-09-13T04:14:49;96970.13;;;10.83;100.00
5284;BME280;15377;48.540;9.268;2022-09-13T04:17:14;96982.75;;;10.95;100.00
5284;BME280;15377;48.540;9.268;2022-09-13T04:19:40;96977.28;;;11.00;100.00
5284;BME280;15377;48.540;9.268;2022-09-13T04:22:06;96976.97;;;10.93;100.00
5284;BME280;15377;48.540;9.268;2022-09-13T04:24:32;96970.06;;;11.03;100.00
5284;BME280;15377;48.540;9.268;2022-09-13T04:26:58;96963.41;;;11.09;100.00
5284;BME280;15377;48.540;9.268;2022-09-13T04:29:24;96985.16;;;11.33;100.00
5284;BME280;15377;48.540;9.268;2022-09-13T04:31:52;96990.94;;;11.35;100.00
5284;BME280;15377;48.540;9.268;2022-09-13T04:34:18;96996.13;;;11.27;100.00
5284;BME280;15377;48.540;9.268;2022-09-13T04:36:44;97002.28;;;11.17;100.00
5284;BME280;15377;48.540;9.268;2022-09-13T04:39:10;96988.66;;;11.08;100.00
5284;BME280;15377;48.540;9.268;2022-09-13T04:41:39;96996.88;;;11.28;100.00
5284;BME280;15377;48.540;9.268;2022-09-13T04:44:04;96997.00;;;11.39;100.00
5284;BME280;15377;48.540;9.268;2022-09-13T04:46:30;96996.78;;;11.42;100.00
5284;BME280;15377;48.540;9.268;2022-09-13T04:48:55;96991.81;;;11.21;100.00
5284;BME280;15377;48.540;9.268;2022-09-13T04:51:20;97017.13;;;11.25;100.00
5284;BME280;15377;48.540;9.268;2022-09-13T04:53:50;97021.28;;;11.15;100.00
5284;BME280;15377;48.540;9.268;2022-09-13T04:56:17;97009.34;;;11.23;100.00
5284;BME280;15377;48.540;9.268;2022-09-13T04:58:43;97008.53;;;11.43;100.00
5284;BME280;15377;48.540;9.268;2022-09-13T05:01:09;97006.16;;;11.56;100.00
5284;BME280;15377;48.540;9.268;2022-09-13T05:03:36;97022.59;;;11.70;100.00
5284;BME280;15377;48.540;9.268;2022-09-13T05:06:06;97019.19;;;11.81;100.00
5284;BME280;15377;48.540;9.268;2022-09-13T05:08:33;97015.13;;;11.76;100.00
5284;BME280;15377;48.540;9.268;2022-09-13T05:10:59;97018.59;;;11.71;100.00
5284;BME280;15377;48.540;9.268;2022-09-13T05:13:25;97023.38;;;11.71;100.00
5284;BME280;15377;48.540;9.268;2022-09-13T05:15:59;97016.34;;;11.70;100.00
5284;BME280;15377;48.540;9.268;2022-09-13T05:18:26;97017.84;;;11.71;100.00
5284;BME280;15377;48.540;9.268;2022-09-13T05:20:55;97009.75;;;11.62;100.00
5284;BME280;15377;48.540;9.268;2022-09-13T05:23:22;97012.22;;;11.60;100.00
5284;BME280;15377;48.540;9.268;2022-09-13T05:25:55;97015.28;;;11.62;100.00
5284;BME280;15377;48.540;9.268;2022-09-13T05:28:21;97016.22;;;11.59;100.00
5284;BME280;15377;48.540;9.268;2022-09-13T05:31:06;97019.50;;;11.57;100.00
5284;BME280;15377;48.540;9.268;2022-09-13T05:33:34;97037.31;;;11.62;100.00
5284;BME280;15377;48.540;9.268;2022-09-13T05:35:59;97032.88;;;11.70;100.00
5284;BME280;15377;48.540;9.268;2022-09-13T05:38:25;97033.22;;;11.83;100.00
5284;BME280;15377;48.540;9.268;2022-09-13T05:40:56;97049.16;;;11.99;100.00
5284;BME280;15377;48.540;9.268;2022-09-13T05:43:22;97039.50;;;12.14;100.00
5284;BME280;15377;48.540;9.268;2022-09-13T05:45:48;97027.72;;;12.14;100.00
5284;BME280;15377;48.540;9.268;2022-09-13T05:48:13;97033.59;;;12.32;100.00
5284;BME280;15377;48.540;9.268;2022-09-13T05:50:39;97041.41;;;12.34;100.00
5284;BME280;15377;48.540;9.268;2022-09-13T05:53:04;97053.50;;;12.42;100.00
5284;BME280;15377;48.540;9.268;2022-09-13T05:55:31;97059.53;;;12.46;100.00
5284;BME280;15377;48.540;9.268;2022-09-13T05:57:56;97050.50;;;12.45;100.00
5284;BME280;15377;48.540;9.268;2022-09-13T06:00:22;97051.53;;;12.48;100.00
5284;BME280;15377;48.540;9.268;2022-09-13T06:02:48;97045.03;;;12.51;100.00
5284;BME280;15377;48.540;9.268;2022-09-13T06:05:13;97051.59;;;12.59;100.00
5284;BME280;15377;48.540;9.268;2022-09-13T06:07:40;97042.13;;;12.71;100.00
5284;BME280;15377;48.540;9.268;2022-09-13T06:10:07;97036.66;;;12.82;100.00
5284;BME280;15377;48.540;9.268;2022-09-13T06:12:32;97036.25;;;13.00;100.00
5284;BME280;15377;48.540;9.268;2022-09-13T06:14:58;97044.38;;;13.20;100.00
5284;BME280;15377;48.540;9.268;2022-09-13T06:17:23;97039.91;;;13.39;100.00
5284;BME280;15377;48.540;9.268;2022-09-13T06:19:48;97040.97;;;13.63;100.00
5284;BME280;15377;48.540;9.268;2022-09-13T06:22:14;97035.44;;;13.69;100.00
5284;BME280;15377;48.540;9.268;2022-09-13T06:24:39;97046.53;;;13.91;100.00
5284;BME280;15377;48.540;9.268;2022-09-13T06:27:04;97049.81;;;14.06;100.00
5284;BME280;15377;48.540;9.268;2022-09-13T06:29:30;97055.59;;;14.19;100.00
5284;BME280;15377;48.540;9.268;2022-09-13T06:31:56;97064.16;;;14.32;100.00
5284;BME280;15377;48.540;9.268;2022-09-13T06:34:22;97053.56;;;14.36;100.00
5284;BME280;15377;48.540;9.268;2022-09-13T06:36:47;97078.47;;;14.58;100.00
5284;BME280;15377;48.540;9.268;2022-09-13T06:39:12;97077.19;;;14.70;100.00
5284;BME280;15377;48.540;9.268;2022-09-13T06:41:38;97059.06;;;14.63;100.00
5284;BME280;15377;48.540;9.268;2022-09-13T06:44:03;97056.50;;;14.81;100.00
5284;BME280;15377;48.540;9.268;2022-09-13T06:46:31;97062.78;;;14.93;100.00
5284;BME280;15377;48.540;9.268;2022-09-13T06:49:02;97067.28;;;15.01;100.00
5284;BME280;15377;48.540;9.268;2022-09-13T06:51:28;97058.44;;;15.08;100.00
5284;BME280;15377;48.540;9.268;2022-09-13T06:53:57;97059.72;;;15.07;100.00
5284;BME280;15377;48.540;9.268;2022-09-13T06:56:27;97080.53;;;15.30;100.00
5284;BME280;15377;48.540;9.268;2022-09-13T06:58:58;97070.66;;;15.46;100.00
5284;BME280;15377;48.540;9.268;2022-09-13T07:01:27;97069.03;;;15.67;100.00
5284;BME280;15377;48.540;9.268;2022-09-13T07:03:56;97071.69;;;15.83;100.00
5284;BME280;15377;48.540;9.268;2022-09-13T07:06:26;97072.91;;;15.93;100.00
5284;BME280;15377;48.540;9.268;2022-09-13T07:08:53;97079.91;;;16.00;100.00
5284;BME280;15377;48.540;9.268;2022-09-13T07:11:21;97086.16;;;16.11;100.00
5284;BME280;15377;48.540;9.268;2022-09-13T07:13:52;97087.09;;;16.19;100.00
5284;BME280;15377;48.540;9.268;2022-09-13T07:16:19;97079.16;;;16.34;100.00
5284;BME280;15377;48.540;9.268;2022-09-13T07:18:59;97066.22;;;16.42;100.00
5284;BME280;15377;48.540;9.268;2022-09-13T07:21:25;97071.41;;;16.57;100.00
5284;BME280;15377;48.540;9.268;2022-09-13T07:23:52;97085.13;;;16.73;100.00
5284;BME280;15377;48.540;9.268;2022-09-13T07:26:18;97070.59;;;16.86;100.00
5284;BME280;15377;48.540;9.268;2022-09-13T07:28:47;97085.88;;;16.98;100.00
5284;BME280;15377;48.540;9.268;2022-09-13T07:31:23;97068.69;;;16.99;100.00
5284;BME280;15377;48.540;9.268;2022-09-13T07:34:04;97079.09;;;17.17;100.00
5284;BME280;15377;48.540;9.268;2022-09-13T07:36:31;97085.47;;;17.36;100.00
5284;BME280;15377;48.540;9.268;2022-09-13T07:38:57;97093.66;;;17.47;100.00
5284;BME280;15377;48.540;9.268;2022-09-13T07:41:24;97079.63;;;17.58;100.00
5284;BME280;15377;48.540;9.268;2022-09-13T07:43:50;97075.50;;;17.65;100.00
5284;BME280;15377;48.540;9.268;2022-09-13T07:46:18;97087.34;;;17.84;100.00
5284;BME280;15377;48.540;9.268;2022-09-13T07:48:45;97074.63;;;17.88;100.00
5284;BME280;15377;48.540;9.268;2022-09-13T07:51:31;97069.97;;;17.96;100.00
5284;BME280;15377;48.540;9.268;2022-09-13T07:54:00;97085.59;;;18.18;100.00
5284;BME280;15377;48.540;9.268;2022-09-13T07:56:31;97092.81;;;18.26;100.00
5284;BME280;15377;48.540;9.268;2022-09-13T07:58:59;97071.59;;;18.23;100.00
5284;BME280;15377;48.540;9.268;2022-09-13T08:01:27;97071.56;;;18.42;100.00
5284;BME280;15377;48.540;9.268;2022-09-13T08:03:56;97068.78;;;18.55;100.00
5284;BME280;15377;48.540;9.268;2022-09-13T08:06:22;97067.84;;;18.65;100.00
5284;BME280;15377;48.540;9.268;2022-09-13T08:08:48;97065.41;;;18.75;100.00
5284;BME280;15377;48.540;9.268;2022-09-13T08:11:19;97050.84;;;18.82;100.00
5284;BME280;15377;48.540;9.268;2022-09-13T08:13:49;97049.00;;;18.97;100.00
5284;BME280;15377;48.540;9.268;2022-09-13T08:16:17;97034.88;;;19.08;100.00
5284;BME280;15377;48.540;9.268;2022-09-13T08:18:44;97054.59;;;19.23;100.00
5284;BME280;15377;48.540;9.268;2022-09-13T08:21:09;97039.28;;;19.29;100.00
5284;BME280;15377;48.540;9.268;2022-09-13T08:23:35;97058.69;;;19.48;100.00
5284;BME280;15377;48.540;9.268;2022-09-13T08:26:00;97060.75;;;19.68;100.00
5284;BME280;15377;48.540;9.268;2022-09-13T08:28:27;97055.88;;;19.81;100.00
5284;BME280;15377;48.540;9.268;2022-09-13T08:30:52;97063.47;;;19.94;100.00
5284;BME280;15377;48.540;9.268;2022-09-13T08:33:17;97038.59;;;19.83;100.00
5284;BME280;15377;48.540;9.268;2022-09-13T08:35:50;97036.16;;;20.00;100.00
5284;BME280;15377;48.540;9.268;2022-09-13T08:38:17;97047.81;;;20.24;100.00
5284;BME280;15377;48.540;9.268;2022-09-13T08:40:47;97031.91;;;20.40;100.00
5284;BME280;15377;48.540;9.268;2022-09-13T08:43:39;97042.03;;;20.71;100.00
5284;BME280;15377;48.540;9.268;2022-09-13T08:46:49;97053.44;;;20.93;100.00
5284;BME280;15377;48.540;9.268;2022-09-13T08:54:15;97057.84;;;21.45;100.00
5284;BME280;15377;48.540;9.268;2022-09-13T09:07:08;97060.94;;;22.27;100.00
5284;BME280;15377;48.540;9.268;2022-09-13T09:09:45;97065.69;;;22.55;100.00
5284;BME280;15377;48.540;9.268;2022-09-13T09:12:15;97070.16;;;22.80;100.00
5284;BME280;15377;48.540;9.268;2022-09-13T09:14:44;97064.47;;;23.40;100.00
5284;BME280;15377;48.540;9.268;2022-09-13T09:17:20;97057.50;;;24.03;100.00
5284;BME280;15377;48.540;9.268;2022-09-13T09:19:49;97043.53;;;24.20;100.00
5284;BME280;15377;48.540;9.268;2022-09-13T09:22:19;97017.13;;;24.89;100.00
5284;BME280;15377;48.540;9.268;2022-09-13T09:24:52;97008.19;;;26.11;100.00
5284;BME280;15377;48.540;9.268;2022-09-13T09:27:19;97016.03;;;27.40;97.80
5284;BME280;15377;48.540;9.268;2022-09-13T09:29:48;97010.28;;;28.25;93.02
5284;BME280;15377;48.540;9.268;2022-09-13T09:37:38;97010.78;;;30.20;76.06
5284;BME280;15377;48.540;9.268;2022-09-13T09:40:05;97014.22;;;31.45;71.86
5284;BME280;15377;48.540;9.268;2022-09-13T09:42:41;97014.84;;;32.04;63.58
5284;BME280;15377;48.540;9.268;2022-09-13T09:45:32;97004.50;;;32.88;59.13
5284;BME280;15377;48.540;9.268;2022-09-13T09:48:03;97011.06;;;33.04;55.96
5284;BME280;15377;48.540;9.268;2022-09-13T09:50:35;97010.53;;;33.34;51.96
5284;BME280;15377;48.540;9.268;2022-09-13T09:58:42;97010.88;;;32.48;54.23
5284;BME280;15377;48.540;9.268;2022-09-13T10:01:29;97016.03;;;33.03;50.74
5284;BME280;15377;48.540;9.268;2022-09-13T10:04:16;97006.34;;;32.43;54.34
5284;BME280;15377;48.540;9.268;2022-09-13T10:06:43;97028.41;;;31.93;55.93
5284;BME280;15377;48.540;9.268;2022-09-13T10:17:14;97043.47;;;30.65;61.38
5284;BME280;15377;48.540;9.268;2022-09-13T10:19:50;97047.56;;;31.56;56.31
5284;BME280;15377;48.540;9.268;2022-09-13T10:22:17;97048.44;;;32.44;54.64
5284;BME280;15377;48.540;9.268;2022-09-13T10:24:42;97053.91;;;32.40;53.50
5284;BME280;15377;48.540;9.268;2022-09-13T10:27:35;97055.22;;;31.65;54.62
5284;BME280;15377;48.540;9.268;2022-09-13T10:30:03;97047.78;;;30.89;43.72
5284;BME280;15377;48.540;9.268;2022-09-13T10:32:29;97036.50;;;30.56;47.65
5284;BME280;15377;48.540;9.268;2022-09-13T10:35:02;97046.44;;;30.67;51.87
5284;BME280;15377;48.540;9.268;2022-09-13T10:37:33;97042.56;;;30.51;52.61
5284;BME280;15377;48.540;9.268;2022-09-13T10:40:03;97035.56;;;30.75;51.77
5284;BME280;15377;48.540;9.268;2022-09-13T10:42:32;97026.59;;;31.86;48.15
5284;BME280;15377;48.540;9.268;2022-09-13T10:45:01;97024.03;;;33.20;47.03
5284;BME280;15377;48.540;9.268;2022-09-13T10:47:38;97014.50;;;34.43;42.60
5284;BME280;15377;48.540;9.268;2022-09-13T10:50:25;97014.28;;;35.32;39.74
5284;BME280;15377;48.540;9.268;2022-09-13T10:52:56;97017.50;;;34.76;38.59
5284;BME280;15377;48.540;9.268;2022-09-13T10:55:28;97022.50;;;35.57;39.96
5284;BME280;15377;48.540;9.268;2022-09-13T10:58:10;97025.63;;;36.31;35.22
5284;BME280;15377;48.540;9.268;2022-09-13T11:14:06;97017.00;;;30.51;46.66
5284;BME280;15377;48.540;9.268;2022-09-13T11:32:55;96994.28;;;28.48;60.51
5284;BME280;15377;48.540;9.268;2022-09-13T11:40:52;96996.78;;;28.54;59.45
5284;BME280;15377;48.540;9.268;2022-09-13T11:46:55;96999.50;;;28.52;60.58
5284;BME280;15377;48.540;9.268;2022-09-13T11:52:00;96995.66;;;28.99;60.49
5284;BME280;15377;48.540;9.268;2022-09-13T11:57:25;97003.09;;;29.25;55.81
5284;BME280;15377;48.540;9.268;2022-09-13T12:00:06;96989.22;;;29.40;57.03
5284;BME280;15377;48.540;9.268;2022-09-13T12:02:45;96982.31;;;29.32;58.80
5284;BME280;15377;48.540;9.268;2022-09-13T12:05:15;96982.25;;;29.20;60.65
5284;BME280;15377;48.540;9.268;2022-09-13T12:07:48;96971.22;;;29.36;59.05
5284;BME280;15377;48.540;9.268;2022-09-13T12:12:50;96964.44;;;29.62;55.69
5284;BME280;15377;48.540;9.268;2022-09-13T12:15:37;96950.09;;;29.81;55.99
5284;BME280;15377;48.540;9.268;2022-09-13T12:18:13;96965.53;;;30.01;56.00
5284;BME280;15377;48.540;9.268;2022-09-13T12:20:47;96968.59;;;30.26;54.87
5284;BME280;15377;48.540;9.268;2022-09-13T12:23:19;96962.50;;;30.08;53.06
5284;BME280;15377;48.540;9.268;2022-09-13T12:26:00;96966.78;;;29.98;51.12
5284;BME280;15377;48.540;9.268;2022-09-13T12:28:33;96964.75;;;29.77;53.19
5284;BME280;15377;48.540;9.268;2022-09-13T12:31:09;96966.28;;;30.01;53.21
5284;BME280;15377;48.540;9.268;2022-09-13T12:33:40;96964.44;;;30.06;50.02
5284;BME280;15377;48.540;9.268;2022-09-13T12:36:33;96958.53;;;30.02;51.34
5284;BME280;15377;48.540;9.268;2022-09-13T12:42:03;96967.28;;;30.06;46.87
5284;BME280;15377;48.540;9.268;2022-09-13T12:45:10;96959.19;;;30.35;49.80
5284;BME280;15377;48.540;9.268;2022-09-13T12:48:05;96958.44;;;30.46;43.17
5284;BME280;15377;48.540;9.268;2022-09-13T12:56:20;96948.06;;;30.27;43.83
5284;BME280;15377;48.540;9.268;2022-09-13T13:01:50;96925.25;;;30.25;45.45
5284;BME280;15377;48.540;9.268;2022-09-13T13:04:25;96945.38;;;30.29;46.62
5284;BME280;15377;48.540;9.268;2022-09-13T13:07:00;96937.97;;;30.36;48.83
5284;BME280;15377;48.540;9.268;2022-09-13T13:09:42;96935.50;;;30.19;44.65
5284;BME280;15377;48.540;9.268;2022-09-13T13:12:55;96905.31;;;29.91;47.41
5284;BME280;15377;48.540;9.268;2022-09-13T13:14:56;96925.06;;;29.89;47.50
5284;BME280;15377;48.540;9.268;2022-09-13T13:17:48;96911.97;;;29.84;45.51
5284;BME280;15377;48.540;9.268;2022-09-13T13:20:39;96909.19;;;29.51;42.25
5284;BME280;15377;48.540;9.268;2022-09-13T13:34:25;96896.81;;;29.47;42.84
5284;BME280;15377;48.540;9.268;2022-09-13T13:36:50;96893.66;;;29.52;41.90
5284;BME280;15377;48.540;9.268;2022-09-13T13:42:00;96901.53;;;29.54;45.50
5284;BME280;15377;48.540;9.268;2022-09-13T13:47:40;96892.69;;;29.59;46.73
5284;BME280;15377;48.540;9.268;2022-09-13T13:57:30;96885.63;;;30.16;48.20
5284;BME280;15377;48.540;9.268;2022-09-13T14:00:22;96895.50;;;30.15;50.14
5284;BME280;15377;48.540;9.268;2022-09-13T14:21:26;96854.09;;;29.66;51.67
5284;BME280;15377;48.540;9.268;2022-09-13T14:24:08;96856.91;;;29.54;51.70
5284;BME280;15377;48.540;9.268;2022-09-13T14:26:39;96862.22;;;29.16;52.43
5284;BME280;15377;48.540;9.268;2022-09-13T14:29:06;96857.16;;;28.93;52.69
5284;BME280;15377;48.540;9.268;2022-09-13T14:31:32;96864.94;;;28.93;52.24
5284;BME280;15377;48.540;9.268;2022-09-13T14:33:58;96862.84;;;28.93;53.12
5284;BME280;15377;48.540;9.268;2022-09-13T14:36:23;96858.09;;;29.07;54.37
5284;BME280;15377;48.540;9.268;2022-09-13T14:38:56;96856.50;;;29.04;53.98
5284;BME280;15377;48.540;9.268;2022-09-13T14:41:31;96858.69;;;29.06;54.01
5284;BME280;15377;48.540;9.268;2022-09-13T14:44:14;96849.56;;;28.96;55.06
5284;BME280;15377;48.540;9.268;2022-09-13T14:46:42;96852.38;;;28.75;52.51
5284;BME280;15377;48.540;9.268;2022-09-13T14:49:16;96858.72;;;28.64;54.18
5284;BME280;15377;48.540;9.268;2022-09-13T14:51:54;96850.81;;;28.62;57.40
5284;BME280;15377;48.540;9.268;2022-09-13T14:54:37;96844.56;;;28.43;60.67
5284;BME280;15377;48.540;9.268;2022-09-13T14:57:06;96823.25;;;28.21;59.19
5284;BME280;15377;48.540;9.268;2022-09-13T14:59:39;96826.19;;;28.23;62.96
5284;BME280;15377;48.540;9.268;2022-09-13T15:02:16;96825.44;;;28.22;63.78
5284;BME280;15377;48.540;9.268;2022-09-13T15:04:48;96810.97;;;28.28;61.58
5284;BME280;15377;48.540;9.268;2022-09-13T15:07:29;96807.06;;;28.33;64.31
5284;BME280;15377;48.540;9.268;2022-09-13T15:10:07;96812.88;;;28.56;66.25
5284;BME280;15377;48.540;9.268;2022-09-13T15:12:34;96800.13;;;28.66;64.72
5284;BME280;15377;48.540;9.268;2022-09-13T15:15:35;96795.00;;;28.74;64.38
5284;BME280;15377;48.540;9.268;2022-09-13T15:18:20;96803.44;;;28.84;60.55
5284;BME280;15377;48.540;9.268;2022-09-13T15:21:05;96794.53;;;28.78;60.01
5284;BME280;15377;48.540;9.268;2022-09-13T15:23:49;96786.09;;;28.68;60.71
5284;BME280;15377;48.540;9.268;2022-09-13T15:26:18;96784.91;;;28.83;62.66
5284;BME280;15377;48.540;9.268;2022-09-13T15:31:30;96793.72;;;28.66;64.16
5284;BME280;15377;48.540;9.268;2022-09-13T15:37:07;96790.44;;;28.48;66.69
5284;BME280;15377;48.540;9.268;2022-09-13T15:40:04;96789.91;;;28.40;66.89
5284;BME280;15377;48.540;9.268;2022-09-13T15:42:30;96786.84;;;28.27;67.85
5284;BME280;15377;48.540;9.268;2022-09-13T15:44:55;96777.50;;;28.24;69.57
5284;BME280;15377;48.540;9.268;2022-09-13T15:47:21;96777.69;;;28.17;69.33
5284;BME280;15377;48.540;9.268;2022-09-13T15:49:48;96765.69;;;28.07;69.63
5284;BME280;15377;48.540;9.268;2022-09-13T15:52:18;96763.78;;;28.00;69.60
5284;BME280;15377;48.540;9.268;2022-09-13T15:54:47;96754.63;;;27.90;70.97
5284;BME280;15377;48.540;9.268;2022-09-13T15:57:25;96740.41;;;27.78;72.76
5284;BME280;15377;48.540;9.268;2022-09-13T15:59:52;96744.31;;;27.64;73.88
5284;BME280;15377;48.540;9.268;2022-09-13T16:02:30;96753.78;;;27.48;74.87
5284;BME280;15377;48.540;9.268;2022-09-13T16:04:56;96747.16;;;27.24;74.88
5284;BME280;15377;48.540;9.268;2022-09-13T16:07:22;96743.63;;;27.14;75.40
5284;BME280;15377;48.540;9.268;2022-09-13T16:09:47;96736.03;;;27.07;76.64
5284;BME280;15377;48.540;9.268;2022-09-13T16:12:13;96724.19;;;26.90;77.33
5284;BME280;15377;48.540;9.268;2022-09-13T16:14:39;96737.59;;;26.80;77.89
5284;BME280;15377;48.540;9.268;2022-09-13T16:17:09;96727.34;;;26.75;79.53
5284;BME280;15377;48.540;9.268;2022-09-13T16:19:35;96722.63;;;26.58;83.09
5284;BME280;15377;48.540;9.268;2022-09-13T16:22:01;96726.63;;;26.46;83.75
5284;BME280;15377;48.540;9.268;2022-09-13T16:24:26;96713.09;;;26.25;85.00
5284;BME280;15377;48.540;9.268;2022-09-13T16:26:52;96728.38;;;26.22;86.94
5284;BME280;15377;48.540;9.268;2022-09-13T16:29:18;96730.31;;;26.10;88.17
5284;BME280;15377;48.540;9.268;2022-09-13T16:31:43;96731.63;;;26.00;90.33
5284;BME280;15377;48.540;9.268;2022-09-13T16:34:08;96730.44;;;25.93;92.24
5284;BME280;15377;48.540;9.268;2022-09-13T16:36:34;96735.13;;;25.81;95.35
5284;BME280;15377;48.540;9.268;2022-09-13T16:38:59;96725.91;;;25.62;99.80
5284;BME280;15377;48.540;9.268;2022-09-13T16:41:25;96715.31;;;25.43;100.00
5284;BME280;15377;48.540;9.268;2022-09-13T16:43:50;96707.09;;;25.28;100.00
5284;BME280;15377;48.540;9.268;2022-09-13T16:46:18;96704.81;;;25.17;100.00